Wewela, South Dakota
Current Conditions -  °F | °C
As of 9:53 AM on Thursday 30 Oct 2014 (Local Time) from KICR Reporting Station
Clear Clear  
Wind Chill: 39°   Ceiling: Unl
Heat Index: 46°   Visibility: 10mi
Dew Point: 36°   Wind: 17mph
Humidity: 68%   Direction: 320°NW
Pressure: 30.21"   Gusts: NA
Location:  43.01°N, 99.78°W
Report Text: KICR 301453Z AUTO 32015KT 10SM CLR 08/02 A3021 RMK AO2 SLP234 T00780022 53031
Loading
Personal Weather Stations






























Interactive Weather Map
Tropical Storm Tracking
New forecast layout! Learn more

10-Day Weather Forecast

Advertisements
Track Severe Weather on mobile